ADDS METAR Data

Data at: 1850 UTC 13 Dec 2017

METAR for:LHSM (Sarmellek Arpt, --, HU)
Text:LHSM 131545Z 22005KT 9999 FEW020 03/01 Q1018
Temperature: 3.0°C ( 37°F)
Dewpoint: 1.0°C ( 34°F) [RH = 87%]
Pressure (altimeter):30.06 inches Hg (1018.0 mb)
Winds:from the SW (220 degrees) at 6 MPH (5 knots; 2.6 m/s)
Visibility:6 or more sm (10+ km)
Ceiling:at least 12,000 feet AGL
Clouds: few clouds at 2000 feet AGL

TAF for:LHSM (Sarmellek Arpt, --, HU) issued at 1115 UTC 13 Dec 2017
Text:TAF LHSM 131115Z 1312/1321 28005KT 9999 SCT015 BKN080
Forecast period:1200 to 1500 UTC 13 December 2017
Forecast type:FROM: standard forecast or significant change
Winds:from the W (280 degrees) at 6 MPH (5 knots; 2.6 m/s)
Visibility:6 or more sm (10+ km)
Ceiling:8000 feet AGL
Clouds: scattered clouds at 1500 feet AGL, broken clouds at 8000 feet AGL
Text:TEMPO 1312/1318 CAVOK
Forecast period:1200 to 1800 UTC 13 December 2017
Forecast type:TEMPORARY: The following changes expected for less than half the time period
Visibility:6 or more sm (10+ km)
Clouds:missing
Weather:NSW (no significant weather)
Text:BECMG 1315/1318 21005KT
Forecast period:1500 to 2100 UTC 13 December 2017
Forecast type:BECOMING: Conditions expected to become as follows by 1800 UTC 13 December 2017
Winds:from the SSW (210 degrees) at 6 MPH (5 knots; 2.6 m/s)
Visibility:6 or more sm (10+ km)
Ceiling:8000 feet AGL
Clouds: scattered clouds at 1500 feet AGL, broken clouds at 8000 feet AGL